Wagoner, OK (74477)

2:34 AM CST on February 07, 2016 (GMT -0600)
Muskogee River Bend | | Change Station
CLOSE
Current Station
Personal Weather Station
Location: Muskogee, OK
Elevation: 543 ft
Nearby Weather Stations

Elev 543 ft 35.79 °N, 95.32 °W | Updated 1 second ago

Partly Cloudy
Partly Cloudy
38.3 °F
Feels Like 38 °F
N
2.0
Wind Variable Wind from SW
Gusts 3.0 mph

Today
High -- | Low -- °F
--% Chance of Precip.
Yesterday
High -- | Low -- °F
Precip. -- in
Pressure 30.22 in
Visibility 10.0 miles
Clouds Clear
Windchill 38 °F
Dew Point 33 °F
Humidity 82%
Rainfall 0.00 in
Snow Depth Not available.
7:17 AM 5:54 PM
Waning Crescent, 2% visible
METAR KTQH 070815Z AUTO 00000KT 10SM CLR M01/M01 A3022 RMK AO2
Pressure 30.22 in
Visibility 10.0 miles
Clouds Clear
Windchill 38 °F
Dew Point 33 °F
Humidity 82%
Rainfall 0.00 in
Snow Depth Not available.
7:17 AM 5:54 PM
Waning Crescent, 2% visible
METAR KTQH 070815Z AUTO 00000KT 10SM CLR M01/M01 A3022 RMK AO2

10-Day Weather Forecast

Almanac

Astronomy

Feb. 07, 2016 Rise Set
Actual Time
Civil Twilight
Nautical Twilight
Astronomical Twilight
Moon
Length of Visible Light
Length of Day
Tomorrow will be .
, % of the Moon is Illuminated

Today's Extremes

State Highs State Lows

Community

WunderPhotos

Upload Photos

1,891,171 photos uploaded!

WunderBlog® & News

Nearby

Air Quality

  Air Quality AQ Index Pollutant
Not available.

Snow Depth

Station Depth Elevation

Earthquake Activity

City Distance Mag. Time & Date
Minimum magnitude displayed is 2.5.

Coastal Water Temperatures

Place Temperature

Stations

Nearby Weather Stations

Station Location Temp. Windchill Dew Point Humidity Wind Precip. Elev Updated Type
                   

Watches & Warnings

There are currently no watches in effect.